Time;durP1;ratioP1;P1;durP2;ratioP2;P2;SDS_P1;SDS_P2;PMS_P1;PMS_P2;Temp;Humidity;BMP_temperature;BMP_pressure;BME280_temperature;BME280_humidity;BME280_pressure;Samples;Min_cycle;Max_cycle;Signal;HPM_P1;HPM_P2
2022/01/11 00:00:21;;;;;;;70.63;36.05;;;;;;;-3.93;74.82;102315.56;5093753;28;20028;-53
2022/01/11 00:02:48;;;;;;;46.45;26.42;;;;;;;-3.66;74.21;102307.94;5095690;28;20043;-54
2022/01/11 00:05:22;;;;;;;49.38;25.55;;;;;;;-3.47;73.37;102314.38;5093259;28;20036;-55
2022/01/11 00:07:51;;;;;;;47.05;25.15;;;;;;;-3.36;72.76;102309.91;5078943;28;20360;-55
2022/01/11 00:10:46;;;;;;;45.28;23.55;;;;;;;-3.27;72.85;102314.75;5074643;28;20035;-55
2022/01/11 00:13:05;;;;;;;46.97;23.80;;;;;;;-3.12;71.99;102325.16;5074883;28;20040;-54
2022/01/11 00:15:30;;;;;;;45.33;24.17;;;;;;;-3.12;71.82;102330.31;5076552;28;20031;-55
2022/01/11 00:17:59;;;;;;;56.38;29.65;;;;;;;-3.14;72.02;102321.63;5075142;28;20044;-55
2022/01/11 00:20:27;;;;;;;71.38;35.70;;;;;;;-3.07;72.30;102324.69;5092093;28;20036;-55
2022/01/11 00:25:30;;;;;;;60.13;31.65;;;;;;;-2.53;71.46;102325.50;5095258;28;20093;-54
2022/01/11 00:27:56;;;;;;;59.63;30.48;;;;;;;-2.29;70.84;102321.84;5095164;28;20032;-56
2022/01/11 00:30:22;;;;;;;56.55;27.98;;;;;;;-2.06;70.21;102325.84;5083892;28;20036;-55
2022/01/11 00:32:52;;;;;;;60.45;28.90;;;;;;;-1.89;69.68;102325.97;5074832;28;20037;-52
2022/01/11 00:35:22;;;;;;;65.45;32.70;;;;;;;-1.82;69.21;102329.00;5074759;28;20127;-55
2022/01/11 00:37:48;;;;;;;68.40;33.85;;;;;;;-1.69;69.08;102334.88;5086454;28;20056;-55
2022/01/11 00:40:14;;;;;;;51.17;25.88;;;;;;;-1.73;68.66;102326.06;5095311;28;20039;-52
2022/01/11 00:42:40;;;;;;;49.80;25.73;;;;;;;-1.67;69.15;102335.88;5094382;28;20058;-56
2022/01/11 00:45:08;;;;;;;53.00;27.30;;;;;;;-1.57;69.08;102330.44;5085387;28;20048;-52
2022/01/11 00:47:33;;;;;;;39.83;22.27;;;;;;;-1.51;68.71;102334.28;5074495;28;20032;-54
2022/01/11 00:49:58;;;;;;;43.88;24.10;;;;;;;-1.39;68.59;102330.63;5074609;28;20365;-52
2022/01/11 00:52:24;;;;;;;41.35;23.02;;;;;;;-1.27;68.59;102337.38;5074417;28;20036;-55
2022/01/11 00:54:49;;;;;;;50.15;29.02;;;;;;;-1.26;68.49;102339.16;5074560;28;20032;-53
2022/01/11 00:57:15;;;;;;;45.65;25.65;;;;;;;-1.13;68.25;102337.28;5074404;28;20506;-55
2022/01/11 00:59:40;;;;;;;49.22;25.52;;;;;;;-1.11;68.21;102343.44;5074429;28;20104;-55
2022/01/11 01:02:06;;;;;;;41.42;21.98;;;;;;;-1.07;68.31;102342.78;5090663;28;20044;-52
2022/01/11 01:04:31;;;;;;;40.70;22.38;;;;;;;-1.06;68.66;102350.59;5074253;28;20028;-53
2022/01/11 01:06:57;;;;;;;40.53;21.23;;;;;;;-1.09;68.78;102346.97;5075327;28;20037;-54
2022/01/11 01:09:25;;;;;;;41.25;22.67;;;;;;;-1.25;69.00;102346.09;5083225;28;20037;-53
2022/01/11 01:11:51;;;;;;;41.13;23.27;;;;;;;-1.30;69.65;102347.53;5093531;28;20066;-53
2022/01/11 01:14:16;;;;;;;40.05;23.13;;;;;;;-1.31;69.89;102348.31;5093482;28;20118;-52
2022/01/11 01:16:42;;;;;;;36.63;21.60;;;;;;;-1.32;70.47;102340.47;5094155;28;20067;-55
2022/01/11 01:19:07;;;;;;;33.10;18.80;;;;;;;-1.16;70.50;102347.41;5092678;28;20028;-53
2022/01/11 01:21:37;;;;;;;31.05;19.15;;;;;;;-1.01;70.16;102349.16;5074014;28;20452;-54
2022/01/11 01:24:08;;;;;;;43.95;24.05;;;;;;;-0.83;69.84;102343.28;5073923;28;20044;-55
2022/01/11 01:26:33;;;;;;;47.42;28.33;;;;;;;-0.73;69.59;102340.41;5073498;28;20115;-54
2022/01/11 01:29:00;;;;;;;37.72;21.80;;;;;;;-0.59;69.25;102348.91;5073710;28;20158;-54
2022/01/11 01:31:27;;;;;;;47.55;27.40;;;;;;;-0.57;69.42;102347.28;5072724;28;20040;-54
2022/01/11 01:33:53;;;;;;;42.47;26.27;;;;;;;-0.57;69.06;102344.72;5084616;28;20531;-51
2022/01/11 01:36:19;;;;;;;34.67;20.90;;;;;;;-0.63;69.46;102344.38;5093782;28;20036;-52
2022/01/11 01:38:44;;;;;;;30.23;18.20;;;;;;;-0.58;69.73;102343.81;5092725;28;20038;-55
2022/01/11 01:41:16;;;;;;;32.88;19.80;;;;;;;-0.44;69.77;102344.56;5093788;28;20034;-51
2022/01/11 01:43:43;;;;;;;33.20;19.80;;;;;;;-0.33;69.41;102347.75;5093667;28;20038;-54
2022/01/11 01:46:09;;;;;;;31.85;18.27;;;;;;;-0.40;69.20;102341.38;5083375;28;20055;-51
2022/01/11 01:48:35;;;;;;;32.35;18.92;;;;;;;-0.55;69.61;102348.28;5082431;28;20463;-53
2022/01/11 01:51:01;;;;;;;35.45;19.08;;;;;;;-0.71;70.49;102349.13;5085210;28;20043;-53
2022/01/11 01:53:27;;;;;;;38.40;20.50;;;;;;;-0.75;70.62;102353.22;5073554;28;20032;-54
2022/01/11 01:55:53;;;;;;;33.47;19.30;;;;;;;-0.84;71.43;102347.56;5084422;28;20059;-55
2022/01/11 01:58:19;;;;;;;36.20;21.00;;;;;;;-0.81;71.45;102352.00;5092749;28;20071;-55
2022/01/11 02:00:51;;;;;;;32.53;18.98;;;;;;;-0.83;71.60;102349.34;5090643;28;20047;-57
2022/01/11 02:03:18;;;;;;;35.83;19.30;;;;;;;-0.81;71.81;102349.41;5073493;28;20036;-54
2022/01/11 02:05:43;;;;;;;30.60;17.92;;;;;;;-0.70;71.96;102362.91;5072100;28;20036;-52
2022/01/11 02:08:10;;;;;;;31.63;18.40;;;;;;;-0.68;71.85;102356.13;5081737;28;20399;-54
2022/01/11 02:10:37;;;;;;;34.00;19.33;;;;;;;-0.73;72.33;102357.59;5091764;28;20127;-51
2022/01/11 02:13:04;;;;;;;28.38;17.55;;;;;;;-0.72;72.08;102360.22;5093396;28;20523;-54
2022/01/11 02:15:30;;;;;;;30.17;17.02;;;;;;;-0.67;72.23;102370.84;5080321;28;20503;-54
2022/01/11 02:18:09;;;;;;;35.45;19.42;;;;;;;-0.65;72.10;102364.06;5073332;28;20036;-53
2022/01/11 02:20:37;;;;;;;27.13;15.52;;;;;;;-0.62;72.31;102361.66;5077692;28;20056;-53
2022/01/11 02:23:02;;;;;;;29.80;16.73;;;;;;;-0.50;72.17;102362.31;5084466;28;20037;-54
2022/01/11 02:25:27;;;;;;;30.48;17.77;;;;;;;-0.49;72.33;102358.94;5090722;28;20375;-53
2022/01/11 02:27:53;;;;;;;30.45;17.35;;;;;;;-0.42;72.46;102363.63;5092475;28;20503;-51
2022/01/11 02:30:18;;;;;;;31.70;16.98;;;;;;;-0.40;72.18;102364.63;5093336;28;20043;-53
2022/01/11 02:32:51;;;;;;;27.52;15.55;;;;;;;-0.44;72.38;102360.06;5087334;28;20029;-53
2022/01/11 02:35:17;;;;;;;32.15;17.23;;;;;;;-0.48;72.85;102359.81;5090942;28;20109;-52
2022/01/11 02:37:44;;;;;;;31.85;17.63;;;;;;;-0.52;73.06;102358.75;5085684;28;20036;-53
2022/01/11 02:40:12;;;;;;;32.75;18.80;;;;;;;-0.53;73.20;102357.88;5093338;28;20036;-53
2022/01/11 02:42:37;;;;;;;28.50;15.80;;;;;;;-0.44;73.83;102359.16;5093427;28;20575;-55
2022/01/11 02:45:03;;;;;;;34.17;19.58;;;;;;;-0.34;73.29;102362.34;5087481;28;20115;-52
2022/01/11 02:47:28;;;;;;;25.20;14.90;;;;;;;-0.29;73.10;102360.91;5078195;28;20040;-52
2022/01/11 02:49:53;;;;;;;26.25;14.60;;;;;;;-0.19;73.12;102366.59;5097106;28;20028;-54
2022/01/11 02:52:19;;;;;;;29.67;16.80;;;;;;;-0.26;72.86;102363.66;5096190;28;20375;-53
2022/01/11 02:54:44;;;;;;;25.10;14.98;;;;;;;-0.19;73.25;102366.59;5096914;28;20024;-54
2022/01/11 02:57:10;;;;;;;24.33;13.85;;;;;;;-0.16;72.88;102374.47;5095881;28;20031;-54
2022/01/11 02:59:35;;;;;;;22.90;13.80;;;;;;;-0.15;73.42;102369.41;5096522;28;20462;-54
2022/01/11 03:02:01;;;;;;;22.85;12.07;;;;;;;-0.11;73.00;102373.94;5097139;28;20036;-50
2022/01/11 03:04:31;;;;;;;21.75;13.18;;;;;;;-0.10;73.03;102361.91;5092259;28;20093;-53
2022/01/11 03:06:57;;;;;;;22.00;13.85;;;;;;;-0.05;73.27;102366.50;5083731;28;20036;-54
2022/01/11 03:09:23;;;;;;;21.45;12.57;;;;;;;0.01;72.97;102365.94;5096515;28;20431;-55
2022/01/11 03:11:49;;;;;;;24.35;12.68;;;;;;;0.05;73.17;102369.56;5092439;28;20036;-54
2022/01/11 03:14:14;;;;;;;18.55;12.43;;;;;;;0.07;72.68;102363.66;5096644;28;20090;-54
2022/01/11 03:16:39;;;;;;;20.33;12.02;;;;;;;0.08;72.91;102368.06;5093770;28;20044;-51
2022/01/11 03:19:05;;;;;;;21.30;12.50;;;;;;;0.09;72.80;102364.66;5076271;28;20056;-55
2022/01/11 03:21:31;;;;;;;22.50;13.27;;;;;;;0.11;73.27;102367.31;5092105;28;20062;-54
2022/01/11 03:23:57;;;;;;;21.33;12.63;;;;;;;0.12;73.25;102371.66;5096296;28;20031;-54
2022/01/11 03:26:23;;;;;;;24.75;13.93;;;;;;;0.10;73.27;102371.59;5095605;28;20510;-55
2022/01/11 03:28:48;;;;;;;20.77;12.30;;;;;;;0.16;73.35;102371.00;5085107;28;20040;-53
2022/01/11 03:31:14;;;;;;;21.80;12.70;;;;;;;0.33;72.80;102374.50;5075999;28;20041;-55
2022/01/11 03:33:39;;;;;;;19.77;12.45;;;;;;;0.43;72.64;102375.03;5075964;28;20037;-54
2022/01/11 03:36:05;;;;;;;19.20;11.45;;;;;;;0.55;72.17;102368.69;5092488;28;20056;-52
2022/01/11 03:38:31;;;;;;;20.10;12.55;;;;;;;0.73;71.44;102377.41;5095810;28;20035;-53
2022/01/11 03:40:57;;;;;;;20.75;12.35;;;;;;;0.73;71.40;102377.41;5084654;28;20399;-53
2022/01/11 03:43:24;;;;;;;22.35;12.88;;;;;;;0.72;71.38;102368.75;5082402;28;20531;-53
2022/01/11 03:45:49;;;;;;;22.92;13.00;;;;;;;0.65;71.80;102377.00;5095864;28;20040;-56
2022/01/11 03:48:15;;;;;;;20.40;12.75;;;;;;;0.54;72.20;102369.53;5095842;28;20074;-53
2022/01/11 03:50:41;;;;;;;19.65;11.93;;;;;;;0.46;72.47;102376.88;5089955;28;20036;-52
2022/01/11 03:53:13;;;;;;;19.00;12.20;;;;;;;0.39;72.95;102375.69;5080295;28;20432;-51
2022/01/11 03:55:58;;;;;;;20.13;12.48;;;;;;;0.34;73.68;102371.09;5079240;28;20061;-51
2022/01/11 03:58:26;;;;;;;19.52;11.63;;;;;;;0.29;73.92;102382.91;5093608;28;20044;-51
2022/01/11 04:00:53;;;;;;;21.10;12.40;;;;;;;0.32;74.07;102377.88;5093110;28;20128;-51
2022/01/11 04:03:19;;;;;;;16.67;10.65;;;;;;;0.39;73.88;102379.97;5083975;28;20050;-50
2022/01/11 04:05:46;;;;;;;21.58;12.07;;;;;;;0.45;73.92;102380.28;5089678;28;20040;-51
2022/01/11 04:08:12;;;;;;;16.73;10.85;;;;;;;0.45;73.77;102378.59;5076616;28;20032;-51
2022/01/11 04:10:38;;;;;;;18.10;10.93;;;;;;;0.50;73.82;102371.06;5090444;28;20036;-51
2022/01/11 04:13:03;;;;;;;17.83;10.63;;;;;;;0.52;73.83;102373.72;5095560;28;20028;-54
2022/01/11 04:15:29;;;;;;;16.75;10.35;;;;;;;0.57;73.69;102374.84;5088144;28;20040;-53
2022/01/11 04:17:54;;;;;;;17.60;10.90;;;;;;;0.62;73.95;102386.31;5084977;28;20064;-55
2022/01/11 04:20:22;;;;;;;15.35;10.50;;;;;;;0.62;73.71;102371.69;5082095;28;20117;-51
2022/01/11 04:22:48;;;;;;;19.30;12.20;;;;;;;0.67;73.81;102377.09;5078837;28;20043;-54
2022/01/11 04:25:14;;;;;;;18.55;12.00;;;;;;;0.62;73.95;102379.44;5080590;28;20463;-54
2022/01/11 04:27:40;;;;;;;19.58;12.07;;;;;;;0.56;74.08;102378.22;5091074;28;20032;-54
2022/01/11 04:30:05;;;;;;;18.38;11.77;;;;;;;0.54;74.33;102372.09;5083025;28;20032;-52
2022/01/11 04:32:31;;;;;;;18.48;12.20;;;;;;;0.52;74.66;102373.72;5084156;28;20032;-53
2022/01/11 04:34:57;;;;;;;21.73;13.93;;;;;;;0.46;74.85;102376.88;5076542;28;20048;-52
2022/01/11 04:37:22;;;;;;;21.45;12.70;;;;;;;0.49;75.17;102377.06;5074835;28;20395;-53
2022/01/11 04:39:48;;;;;;;28.05;19.67;;;;;;;0.52;75.55;102374.63;5074905;28;20032;-52
2022/01/11 04:42:14;;;;;;;36.35;25.77;;;;;;;0.54;75.79;102375.59;5077245;28;20029;-51
2022/01/11 04:44:39;;;;;;;30.35;22.08;;;;;;;0.63;75.23;102369.97;5074628;28;20032;-50
2022/01/11 04:47:06;;;;;;;23.85;17.67;;;;;;;0.66;75.52;102371.03;5079097;28;20028;-52
2022/01/11 04:49:31;;;;;;;23.73;16.13;;;;;;;0.68;75.12;102373.72;5081769;28;20097;-52
2022/01/11 04:51:56;;;;;;;18.50;12.13;;;;;;;0.63;75.19;102368.28;5074411;28;20460;-52
2022/01/11 04:54:22;;;;;;;18.58;12.20;;;;;;;0.54;75.34;102359.19;5084938;28;20043;-53
2022/01/11 04:56:47;;;;;;;17.08;10.73;;;;;;;0.39;76.11;102369.63;5085166;28;20100;-57
2022/01/11 04:59:13;;;;;;;17.75;11.52;;;;;;;0.22;77.15;102367.06;5090043;28;20040;-51
2022/01/11 05:01:40;;;;;;;16.73;10.88;;;;;;;0.14;77.54;102362.28;5084014;28;20044;-55
2022/01/11 05:04:05;;;;;;;19.60;11.25;;;;;;;0.03;78.16;102359.13;5074094;28;20028;-52
2022/01/11 05:06:31;;;;;;;17.63;11.40;;;;;;;-0.05;79.48;102370.78;5080665;28;20100;-54
2022/01/11 05:08:56;;;;;;;18.05;11.45;;;;;;;-0.09;79.97;102369.72;5094625;28;20391;-53
2022/01/11 05:11:22;;;;;;;19.17;11.05;;;;;;;-0.11;79.82;102366.19;5093274;28;20078;-53
2022/01/11 05:13:48;;;;;;;15.02;9.88;;;;;;;-0.11;80.05;102373.03;5085920;28;20044;-53
2022/01/11 05:16:13;;;;;;;16.40;9.68;;;;;;;-0.22;80.61;102381.91;5081882;28;20055;-52
2022/01/11 05:18:39;;;;;;;16.95;10.25;;;;;;;-0.29;80.70;102376.41;5094253;28;20032;-50
2022/01/11 05:21:05;;;;;;;15.20;8.98;;;;;;;-0.32;80.95;102376.25;5093552;28;20451;-51
2022/01/11 05:23:31;;;;;;;14.88;9.70;;;;;;;-0.40;81.62;102374.94;5094543;28;20028;-55
2022/01/11 05:25:57;;;;;;;20.58;12.32;;;;;;;-0.42;81.91;102378.25;5093922;28;20150;-55
2022/01/11 05:28:22;;;;;;;28.00;13.52;;;;;;;-0.47;82.06;102388.31;5094287;28;20057;-54
2022/01/11 05:30:48;;;;;;;28.25;14.82;;;;;;;-0.53;82.32;102378.53;5074757;28;20119;-52
2022/01/11 05:33:13;;;;;;;24.08;14.32;;;;;;;-0.48;81.99;102381.34;5073062;28;20533;-54
2022/01/11 05:35:39;;;;;;;16.33;11.23;;;;;;;-0.42;81.13;102388.56;5073548;28;20060;-54
2022/01/11 05:38:04;;;;;;;17.13;10.98;;;;;;;-0.48;81.21;102389.09;5080796;28;20430;-53
2022/01/11 05:40:30;;;;;;;25.20;14.18;;;;;;;-0.51;81.46;102388.97;5094197;28;20030;-50
2022/01/11 05:42:55;;;;;;;27.13;15.20;;;;;;;-0.55;81.95;102387.03;5093718;28;20028;-54
2022/01/11 05:45:21;;;;;;;30.42;16.63;;;;;;;-0.55;81.89;102385.31;5081602;28;20037;-51
2022/01/11 05:47:52;;;;;;;21.65;12.55;;;;;;;-0.56;82.27;102382.63;5073474;28;20107;-56
2022/01/11 05:50:19;;;;;;;19.08;11.00;;;;;;;-0.54;82.04;102389.66;5073924;28;20075;-50
2022/01/11 05:52:44;;;;;;;17.65;10.48;;;;;;;-0.56;81.56;102380.03;5091866;28;20536;-50
2022/01/11 05:55:11;;;;;;;16.90;10.23;;;;;;;-0.59;81.10;102385.06;5092568;28;20036;-52
2022/01/11 05:57:37;;;;;;;20.55;11.05;;;;;;;-0.66;81.35;102390.69;5093607;28;20036;-53
2022/01/11 06:00:06;;;;;;;18.83;10.88;;;;;;;-0.73;82.21;102391.16;5093569;28;20039;-54
2022/01/11 06:02:31;;;;;;;21.02;12.23;;;;;;;-0.78;82.37;102394.34;5092238;28;20437;-52
2022/01/11 06:04:57;;;;;;;24.65;13.18;;;;;;;-0.82;81.73;102394.97;5093197;28;20487;-53
2022/01/11 06:07:22;;;;;;;109.13;38.22;;;;;;;-0.92;81.94;102407.28;5091102;28;20074;-53
2022/01/11 06:09:47;;;;;;;171.77;53.70;;;;;;;-1.03;82.47;102406.69;5092424;28;20206;-54
2022/01/11 06:12:13;;;;;;;102.97;38.22;;;;;;;-1.10;82.12;102408.00;5088683;28;20047;-55
2022/01/11 06:14:38;;;;;;;65.88;30.25;;;;;;;-1.21;82.05;102410.75;5085512;28;20479;-55
2022/01/11 06:17:03;;;;;;;50.13;22.83;;;;;;;-1.26;82.10;102418.22;5072411;28;20109;-52
2022/01/11 06:19:31;;;;;;;52.95;23.10;;;;;;;-1.34;82.46;102415.19;5082327;28;20036;-52
2022/01/11 06:21:57;;;;;;;37.55;18.55;;;;;;;-1.37;82.55;102411.53;5077324;28;20041;-52
2022/01/11 06:24:22;;;;;;;175.75;53.03;;;;;;;-1.41;82.17;102423.38;5093100;28;20404;-55
2022/01/11 06:26:47;;;;;;;68.97;30.10;;;;;;;-1.50;82.19;102427.97;5097584;28;20036;-55
2022/01/11 06:29:13;;;;;;;57.92;30.05;;;;;;;-1.59;82.20;102423.16;5097523;28;20028;-52
2022/01/11 06:31:38;;;;;;;254.88;93.15;;;;;;;-1.61;82.59;102429.91;5092756;28;20115;-52
2022/01/11 06:34:04;;;;;;;135.65;53.45;;;;;;;-1.66;82.37;102433.91;5077461;28;20105;-55
2022/01/11 06:36:29;;;;;;;96.18;46.45;;;;;;;-1.76;82.85;102435.00;5093747;28;20036;-54
2022/01/11 06:38:55;;;;;;;46.78;24.92;;;;;;;-1.87;83.09;102441.22;5097687;28;20089;-51
2022/01/11 06:41:21;;;;;;;36.03;19.30;;;;;;;-1.93;83.50;102450.25;5096332;28;20027;-54
2022/01/11 06:43:47;;;;;;;30.45;18.30;;;;;;;-2.03;83.67;102447.13;5095911;28;20036;-52
2022/01/11 06:46:13;;;;;;;27.80;17.38;;;;;;;-2.09;84.06;102441.56;5092589;28;20054;-55
2022/01/11 06:48:39;;;;;;;27.40;16.38;;;;;;;-2.12;83.82;102437.91;5096098;28;20032;-55
2022/01/11 06:51:04;;;;;;;66.63;42.50;;;;;;;-2.12;83.91;102454.25;5091421;28;20025;-56
2022/01/11 06:53:31;;;;;;;31.25;19.17;;;;;;;-2.14;84.06;102452.38;5090359;28;20028;-51
2022/01/11 06:55:57;;;;;;;26.50;15.82;;;;;;;-2.17;83.98;102458.22;5083182;28;20464;-53
2022/01/11 06:58:22;;;;;;;26.13;16.48;;;;;;;-2.18;83.76;102460.72;5086900;28;20074;-53
2022/01/11 07:00:48;;;;;;;26.10;16.23;;;;;;;-2.31;83.52;102462.53;5078231;28;20086;-54
2022/01/11 07:03:15;;;;;;;25.58;16.00;;;;;;;-2.31;83.87;102470.25;5096132;28;20036;-52
2022/01/11 07:05:42;;;;;;;29.58;19.77;;;;;;;-2.34;84.11;102474.31;5088587;28;20024;-51
2022/01/11 07:08:07;;;;;;;27.90;18.85;;;;;;;-2.36;84.31;102473.31;5089017;28;20036;-54
2022/01/11 07:10:32;;;;;;;46.08;25.30;;;;;;;-2.32;84.47;102483.00;5087428;28;20070;-54
2022/01/11 07:12:58;;;;;;;42.55;23.30;;;;;;;-2.31;84.67;102483.13;5079502;28;20403;-52
2022/01/11 07:15:24;;;;;;;33.65;16.77;;;;;;;-2.22;85.35;102482.81;5077801;28;20044;-53
2022/01/11 07:17:49;;;;;;;37.50;18.63;;;;;;;-2.08;84.46;102486.25;5095334;28;20040;-56
2022/01/11 07:20:15;;;;;;;33.97;19.25;;;;;;;-2.03;83.28;102485.75;5096572;28;20031;-55
2022/01/11 07:22:40;;;;;;;40.33;20.48;;;;;;;-1.95;82.60;102493.09;5096555;28;20460;-54
2022/01/11 07:25:06;;;;;;;30.50;16.80;;;;;;;-1.96;81.94;102489.59;5096161;28;20070;-54
2022/01/11 07:27:33;;;;;;;27.05;15.45;;;;;;;-1.98;82.03;102488.63;5096342;28;20032;-54
2022/01/11 07:29:59;;;;;;;30.02;17.83;;;;;;;-1.93;81.94;102494.94;5095967;28;20071;-53
2022/01/11 07:32:25;;;;;;;36.25;19.55;;;;;;;-1.95;81.91;102493.09;5096392;28;20075;-53
2022/01/11 07:34:50;;;;;;;38.03;21.38;;;;;;;-1.98;81.47;102504.06;5096093;28;20399;-55
2022/01/11 07:37:16;;;;;;;33.35;21.13;;;;;;;-2.00;81.39;102505.66;5095405;28;20189;-53
2022/01/11 07:39:43;;;;;;;33.88;20.55;;;;;;;-1.91;81.34;102520.81;5077961;28;20400;-54
2022/01/11 07:42:08;;;;;;;46.53;24.83;;;;;;;-1.84;80.80;102518.69;5075870;28;20456;-55
2022/01/11 07:44:34;;;;;;;49.22;27.60;;;;;;;-1.80;80.55;102509.47;5076021;28;20094;-55
2022/01/11 07:47:01;;;;;;;48.20;26.02;;;;;;;-1.74;80.34;102510.75;5083329;28;20539;-55
2022/01/11 07:49:27;;;;;;;64.82;31.83;;;;;;;-1.70;79.54;102511.84;5077257;28;20064;-54
2022/01/11 07:51:52;;;;;;;55.13;26.73;;;;;;;-1.66;79.62;102523.25;5075751;28;20060;-55
2022/01/11 07:54:18;;;;;;;60.33;30.08;;;;;;;-1.61;79.00;102519.25;5083492;28;20033;-53
2022/01/11 07:56:43;;;;;;;48.90;25.10;;;;;;;-1.54;78.66;102518.84;5075483;28;20036;-53
2022/01/11 07:59:10;;;;;;;48.88;26.00;;;;;;;-1.47;78.50;102527.84;5076442;28;20140;-56
2022/01/11 08:01:36;;;;;;;40.28;24.13;;;;;;;-1.28;78.21;102521.31;5075596;28;20388;-54
2022/01/11 08:04:01;;;;;;;41.70;22.92;;;;;;;-1.01;77.64;102516.03;5075469;28;20525;-54
2022/01/11 08:06:27;;;;;;;44.55;24.88;;;;;;;-0.70;76.56;102523.88;5076088;28;20032;-54
2022/01/11 08:08:52;;;;;;;40.40;23.40;;;;;;;-0.39;75.68;102523.97;5075530;28;20029;-53
2022/01/11 08:11:18;;;;;;;39.50;21.88;;;;;;;-0.10;74.46;102519.53;5075072;28;20068;-54
2022/01/11 08:13:43;;;;;;;36.95;22.63;;;;;;;0.12;73.62;102530.28;5074719;28;20390;-54
2022/01/11 08:16:09;;;;;;;33.10;20.85;;;;;;;0.35;72.86;102522.84;5075073;28;20043;-55
2022/01/11 08:18:34;;;;;;;35.90;22.00;;;;;;;0.51;72.27;102525.44;5075416;28;20029;-55
2022/01/11 08:21:00;;;;;;;40.83;25.42;;;;;;;0.66;72.04;102530.56;5075223;28;20044;-54
2022/01/11 08:23:25;;;;;;;44.70;25.67;;;;;;;0.77;71.80;102528.53;5079520;28;20036;-54
2022/01/11 08:25:51;;;;;;;55.97;32.58;;;;;;;0.95;70.94;102526.91;5095199;28;20028;-52
2022/01/11 08:28:16;;;;;;;40.92;23.55;;;;;;;1.03;70.72;102532.47;5094084;28;20239;-55
2022/01/11 08:30:42;;;;;;;35.00;20.08;;;;;;;1.00;70.59;102533.22;5093567;28;20111;-57
2022/01/11 08:33:09;;;;;;;33.63;19.95;;;;;;;1.10;70.84;102540.63;5074991;28;20043;-53
2022/01/11 08:35:35;;;;;;;35.78;22.48;;;;;;;1.29;70.36;102544.16;5077545;28;20048;-53
2022/01/11 08:38:01;;;;;;;36.85;22.42;;;;;;;1.36;70.18;102549.75;5080762;28;20115;-53
2022/01/11 08:40:27;;;;;;;43.60;23.52;;;;;;;1.46;70.15;102554.56;5073164;28;20094;-54
2022/01/11 08:42:53;;;;;;;37.67;21.17;;;;;;;1.47;70.07;102555.44;5077769;28;20042;-54
2022/01/11 08:45:19;;;;;;;39.53;22.30;;;;;;;1.52;70.15;102554.00;5094867;28;20036;-54
2022/01/11 08:47:46;;;;;;;38.85;22.30;;;;;;;1.67;69.78;102557.31;5086188;28;20054;-53
2022/01/11 08:50:12;;;;;;;42.95;23.92;;;;;;;1.88;69.35;102564.38;5089728;28;20037;-56
2022/01/11 08:52:42;;;;;;;57.13;29.10;;;;;;;2.05;68.83;102566.06;5087213;28;20073;-54
2022/01/11 08:55:11;;;;;;;69.25;33.33;;;;;;;2.19;68.48;102571.91;5089734;28;20032;-51
2022/01/11 08:57:36;;;;;;;59.70;32.75;;;;;;;2.29;68.28;102565.47;5087026;28;20035;-55
2022/01/11 09:00:06;;;;;;;72.32;37.20;;;;;;;2.30;68.20;102567.22;5074511;28;20029;-52
2022/01/11 09:02:35;;;;;;;98.63;40.15;;;;;;;2.42;68.05;102573.88;5074085;28;20180;-52
2022/01/11 09:05:01;;;;;;;105.82;44.65;;;;;;;2.59;67.73;102568.56;5073943;28;20444;-51
2022/01/11 09:07:26;;;;;;;57.47;31.98;;;;;;;2.71;67.53;102569.13;5074225;28;20064;-52
2022/01/11 09:09:51;;;;;;;49.75;30.58;;;;;;;2.86;67.17;102571.53;5074087;28;20102;-52
2022/01/11 09:12:19;;;;;;;46.63;28.88;;;;;;;2.99;66.95;102571.25;5072900;28;20526;-53
2022/01/11 09:14:45;;;;;;;61.67;34.80;;;;;;;3.03;66.94;102575.75;5074219;28;20037;-52
2022/01/11 09:17:11;;;;;;;112.30;56.00;;;;;;;3.05;67.18;102568.94;5074004;28;20083;-52
2022/01/11 09:19:37;;;;;;;78.60;44.40;;;;;;;3.12;66.86;102567.50;5074054;28;20487;-52
2022/01/11 09:22:02;;;;;;;71.38;39.60;;;;;;;3.13;66.80;102564.97;5073865;28;20071;-51
2022/01/11 09:24:31;;;;;;;63.28;39.05;;;;;;;3.19;66.88;102569.53;5073825;28;20033;-54
2022/01/11 09:26:58;;;;;;;60.33;34.72;;;;;;;3.16;67.18;102567.69;5073622;28;20396;-52
2022/01/11 09:29:25;;;;;;;56.63;34.15;;;;;;;3.20;67.22;102567.00;5074145;28;20032;-51
2022/01/11 09:31:50;;;;;;;52.30;32.88;;;;;;;3.22;67.34;102564.47;5074454;28;20507;-51
2022/01/11 09:34:16;;;;;;;64.60;34.88;;;;;;;3.30;67.10;102572.59;5073579;28;20048;-54
2022/01/11 09:36:41;;;;;;;61.17;32.47;;;;;;;3.33;67.04;102570.13;5073761;28;20041;-51
